Brant — 5BBK2 — position and weather

sailwx.info

Track history (hours):
 
Tides and Currents Weather Stations Pressure Air Temp Water Temp Dewpoint Dewpoint Depression Visibility Wind Speed Wind Dir Waves Ship Positions

Brant

Last reported at 2014-Sep-14 10:32 UTC. Time now 2014-Sep-21 20:11 UTC.
Position N 50°32' E 000°07'.

Length 185 m; draft 10.1 m.

Type: Cargo ship. MMSI: 212372000.

Date/timePositionNaut miles runAvg speedWind from/ knotsBaromVisibWave heightAir tempDewpointWater temp
2014-Sep-14 10:32N 50°32' E 000°07'1511.8
2014-Sep-14 09:16N 50°37' E 000°30'912.9
2014-Sep-14 08:33N 50°41' E 000°43'1413.3
2014-Sep-14 07:30N 50°49' E 001°01'1612.5
2014-Sep-14 06:12N 51°00' E 001°20'711.0
2014-Sep-14 05:33N 51°05' E 001°28'9 9.4
2014-Sep-14 04:34N 51°11' E 001°40'9 9.3
2014-Sep-14 03:33N 51°17' E 001°50'1010.4
2014-Sep-14 02:34N 51°26' E 001°59'1211.6
2014-Sep-14 01:34N 51°35' E 002°11'16911.6
2014-Sep-13 11:03N 54°05' E 004°19'611.6
2014-Sep-13 10:33N 54°10' E 004°24'25911.5
2014-Sep-12 12:04N 57°37' E 009°01'1811.6
2014-Sep-12 10:31N 57°46' E 009°31'1211.3
2014-Sep-12 09:30N 57°50' E 009°51'1111.3
2014-Sep-12 08:33N 57°51' E 010°11'1211.6
2014-Sep-12 07:33N 57°50' E 010°33'1111.3
2014-Sep-12 06:33N 57°45' E 010°52'1211.8
2014-Sep-12 05:32N 57°37' E 011°08'1111.7
2014-Sep-12 04:33N 57°29' E 011°24'1211.7
2014-Sep-12 03:33N 57°18' E 011°33'1212.4
2014-Sep-12 02:33N 57°07' E 011°41'1212.3
2014-Sep-12 01:33N 56°55' E 011°48'1211.6
2014-Sep-12 00:32N 56°44' E 011°52'1212.0
2014-Sep-11 23:33N 56°33' E 011°41'1211.5
2014-Sep-11 22:33N 56°24' E 011°31'1211.0
2014-Sep-11 21:30N 56°14' E 011°20'98 9.9
2014-Sep-11 11:33N 54°36' E 011°04'1313.0
2014-Sep-11 10:34N 54°32' E 011°25'1413.6
2014-Sep-11 09:33N 54°27' E 011°46'1312.6
2014-Sep-11 08:33N 54°26' E 012°08'1211.6
2014-Sep-11 07:34N 54°37' E 012°17'1312.8
2014-Sep-11 06:33N 54°44' E 012°35'1212.2
2014-Sep-11 05:33N 54°46' E 012°56'1312.8
2014-Sep-11 04:34N 54°45' E 013°18'1312.7
2014-Sep-11 03:33N 54°43' E 013°40'1312.8
2014-Sep-11 02:33N 54°40' E 014°01'1712.9
2014-Sep-11 01:14N 54°38' E 014°31'  
2014-Sep-08 00:33N 55°35' E 019°48'1312.7
2014-Sep-07 23:33N 55°31' E 019°26'1312.7
2014-Sep-07 22:34N 55°28' E 019°05'1111.4
2014-Sep-07 21:33N 55°16' E 019°06'1313.2
2014-Sep-07 20:33N 55°03' E 019°12'1313.2
2014-Sep-07 19:33N 54°51' E 019°19'1312.6
2014-Sep-07 18:33N 54°44' E 019°38'1111.0
2014-Sep-07 17:33N 54°38' E 019°54'1 0.2
2014-Sep-07 13:07N 54°38' E 019°55'0 0.0
2014-Sep-07 12:25N 54°38' E 019°55'0 0.0
2014-Sep-07 11:31N 54°38' E 019°55'0 0.0
2014-Sep-07 10:31N 54°38' E 019°55'0 0.0
2014-Sep-07 09:31N 54°38' E 019°55'0 0.0
2014-Sep-07 08:31N 54°38' E 019°55'0 0.0
2014-Sep-07 07:31N 54°38' E 019°55'0 0.0
2014-Sep-07 06:31N 54°38' E 019°55'0 0.0
2014-Sep-07 05:31N 54°38' E 019°55'0 0.0
2014-Sep-07 04:33N 54°38' E 019°55'4 4.2
2014-Sep-07 03:33N 54°39' E 019°48'0 0.1
2014-Sep-07 02:33N 54°39' E 019°48'0 0.0
2014-Sep-07 01:33N 54°39' E 019°48'0 0.0
2014-Sep-07 00:33N 54°39' E 019°48'0 0.0
2014-Sep-06 23:33N 54°39' E 019°48'0 0.0
2014-Sep-06 22:30N 54°39' E 019°48'0 0.0
2014-Sep-06 21:33N 54°39' E 019°48'0 0.0
2014-Sep-06 20:33N 54°39' E 019°48'0 0.0
2014-Sep-06 19:33N 54°39' E 019°48'4 4.5
2014-Sep-06 18:33N 54°42' E 019°42'1212.2
2014-Sep-06 17:33N 54°48' E 019°24'1212.1
2014-Sep-06 16:33N 54°52' E 019°04'1212.2
2014-Sep-06 15:33N 54°55' E 018°44'1211.7
2014-Sep-06 14:33N 54°58' E 018°24'1110.8
2014-Sep-06 13:33N 54°59' E 018°05'1212.3
2014-Sep-06 12:33N 54°56' E 017°44'1312.3
2014-Sep-06 11:32N 54°53' E 017°23'1212.4
2014-Sep-06 10:33N 54°50' E 017°02'2512.5
2014-Sep-06 08:33N 54°46' E 016°19'1312.8
2014-Sep-06 07:33N 54°44' E 015°58'1312.7
2014-Sep-06 06:33N 54°42' E 015°36'1312.9
2014-Sep-06 05:34N 54°40' E 015°14'1312.9
2014-Sep-06 04:33N 54°38' E 014°52'1312.6
2014-Sep-06 03:33N 54°36' E 014°30'1212.0
2014-Sep-06 02:33N 54°38' E 014°10'1312.7
2014-Sep-06 01:33N 54°42' E 013°49'1312.6
2014-Sep-06 00:33N 54°45' E 013°28'1212.5
2014-Sep-05 23:33N 54°44' E 013°06'1212.3
2014-Sep-05 22:33N 54°44' E 012°45'1212.3
2014-Sep-05 21:33N 54°38' E 012°26'1211.7
2014-Sep-05 20:33N 54°28' E 012°15'1010.4
2014-Sep-05 19:33N 54°25' E 011°58'1211.5
2014-Sep-05 18:33N 54°27' E 011°39'72 7.9
2014-Sep-05 09:30N 54°15' E 009°37'5 5.0
2014-Sep-05 08:32N 54°11' E 009°31'7 7.4
2014-Sep-05 07:33N 54°08' E 009°20'8 8.4
2014-Sep-05 06:33N 53°60' E 009°17'8 8.0
2014-Sep-05 05:33N 53°54' E 009°09'3 3.1
2014-Sep-05 04:33N 53°52' E 009°04'1111.2
2014-Sep-05 03:33N 53°51' E 008°45'1211.9
2014-Sep-05 02:33N 53°58' E 008°29'1211.9
2014-Sep-05 01:33N 53°59' E 008°09'1211.6
2014-Sep-05 00:33N 54°04' E 007°50'1211.8
2014-Sep-04 23:33N 54°09' E 007°32'1211.6
2014-Sep-04 22:33N 54°09' E 007°13'1111.3
2014-Sep-04 21:33N 54°09' E 006°53'2311.6
2014-Sep-04 19:32N 54°08' E 006°13'5112.1
2014-Sep-04 15:20N 54°01' E 004°47'1112.4
2014-Sep-04 14:26N 53°60' E 004°28'  
Track history (hours):
 
Tides and Currents Weather Stations Pressure Air Temp Water Temp Dewpoint Dewpoint Depression Visibility Wind Speed Wind Dir Waves Ship Positions

Brant

Last reported at 2014-Sep-14 10:32 UTC. Time now 2014-Sep-21 20:11 UTC.
Position N 50°32' E 000°07'.

Length 185 m; draft 10.1 m.

Type: Cargo ship. MMSI: 212372000.

Date/timePositionNaut miles runAvg speedWind from/ knotsBaromVisibWave heightAir tempDewpointWater temp
2014-Sep-14 10:32N 50°32' E 000°07'1511.8
2014-Sep-14 09:16N 50°37' E 000°30'912.9
2014-Sep-14 08:33N 50°41' E 000°43'1413.3
2014-Sep-14 07:30N 50°49' E 001°01'1612.5
2014-Sep-14 06:12N 51°00' E 001°20'711.0
2014-Sep-14 05:33N 51°05' E 001°28'9 9.4
2014-Sep-14 04:34N 51°11' E 001°40'9 9.3
2014-Sep-14 03:33N 51°17' E 001°50'1010.4
2014-Sep-14 02:34N 51°26' E 001°59'1211.6
2014-Sep-14 01:34N 51°35' E 002°11'16911.6
2014-Sep-13 11:03N 54°05' E 004°19'611.6
2014-Sep-13 10:33N 54°10' E 004°24'25911.5
2014-Sep-12 12:04N 57°37' E 009°01'1811.6
2014-Sep-12 10:31N 57°46' E 009°31'1211.3
2014-Sep-12 09:30N 57°50' E 009°51'1111.3
2014-Sep-12 08:33N 57°51' E 010°11'1211.6
2014-Sep-12 07:33N 57°50' E 010°33'1111.3
2014-Sep-12 06:33N 57°45' E 010°52'1211.8
2014-Sep-12 05:32N 57°37' E 011°08'1111.7
2014-Sep-12 04:33N 57°29' E 011°24'1211.7
2014-Sep-12 03:33N 57°18' E 011°33'1212.4
2014-Sep-12 02:33N 57°07' E 011°41'1212.3
2014-Sep-12 01:33N 56°55' E 011°48'1211.6
2014-Sep-12 00:32N 56°44' E 011°52'1212.0
2014-Sep-11 23:33N 56°33' E 011°41'1211.5
2014-Sep-11 22:33N 56°24' E 011°31'1211.0
2014-Sep-11 21:30N 56°14' E 011°20'98 9.9
2014-Sep-11 11:33N 54°36' E 011°04'1313.0
2014-Sep-11 10:34N 54°32' E 011°25'1413.6
2014-Sep-11 09:33N 54°27' E 011°46'1312.6
2014-Sep-11 08:33N 54°26' E 012°08'1211.6
2014-Sep-11 07:34N 54°37' E 012°17'1312.8
2014-Sep-11 06:33N 54°44' E 012°35'1212.2
2014-Sep-11 05:33N 54°46' E 012°56'1312.8
2014-Sep-11 04:34N 54°45' E 013°18'1312.7
2014-Sep-11 03:33N 54°43' E 013°40'1312.8
2014-Sep-11 02:33N 54°40' E 014°01'1712.9
2014-Sep-11 01:14N 54°38' E 014°31'  
2014-Sep-08 00:33N 55°35' E 019°48'1312.7
2014-Sep-07 23:33N 55°31' E 019°26'1312.7
2014-Sep-07 22:34N 55°28' E 019°05'1111.4
2014-Sep-07 21:33N 55°16' E 019°06'1313.2
2014-Sep-07 20:33N 55°03' E 019°12'1313.2
2014-Sep-07 19:33N 54°51' E 019°19'1312.6
2014-Sep-07 18:33N 54°44' E 019°38'1111.0
2014-Sep-07 17:33N 54°38' E 019°54'1 0.2
2014-Sep-07 13:07N 54°38' E 019°55'0 0.0
2014-Sep-07 12:25N 54°38' E 019°55'0 0.0
2014-Sep-07 11:31N 54°38' E 019°55'0 0.0
2014-Sep-07 10:31N 54°38' E 019°55'0 0.0
2014-Sep-07 09:31N 54°38' E 019°55'0 0.0
2014-Sep-07 08:31N 54°38' E 019°55'0 0.0
2014-Sep-07 07:31N 54°38' E 019°55'0 0.0
2014-Sep-07 06:31N 54°38' E 019°55'0 0.0
2014-Sep-07 05:31N 54°38' E 019°55'0 0.0
2014-Sep-07 04:33N 54°38' E 019°55'4 4.2
2014-Sep-07 03:33N 54°39' E 019°48'0 0.1
2014-Sep-07 02:33N 54°39' E 019°48'0 0.0
2014-Sep-07 01:33N 54°39' E 019°48'0 0.0
2014-Sep-07 00:33N 54°39' E 019°48'0 0.0
2014-Sep-06 23:33N 54°39' E 019°48'0 0.0
2014-Sep-06 22:30N 54°39' E 019°48'0 0.0
2014-Sep-06 21:33N 54°39' E 019°48'0 0.0
2014-Sep-06 20:33N 54°39' E 019°48'0 0.0
2014-Sep-06 19:33N 54°39' E 019°48'4 4.5
2014-Sep-06 18:33N 54°42' E 019°42'1212.2
2014-Sep-06 17:33N 54°48' E 019°24'1212.1
2014-Sep-06 16:33N 54°52' E 019°04'1212.2
2014-Sep-06 15:33N 54°55' E 018°44'1211.7
2014-Sep-06 14:33N 54°58' E 018°24'1110.8
2014-Sep-06 13:33N 54°59' E 018°05'1212.3
2014-Sep-06 12:33N 54°56' E 017°44'1312.3
2014-Sep-06 11:32N 54°53' E 017°23'1212.4
2014-Sep-06 10:33N 54°50' E 017°02'2512.5
2014-Sep-06 08:33N 54°46' E 016°19'1312.8
2014-Sep-06 07:33N 54°44' E 015°58'1312.7
2014-Sep-06 06:33N 54°42' E 015°36'1312.9
2014-Sep-06 05:34N 54°40' E 015°14'1312.9
2014-Sep-06 04:33N 54°38' E 014°52'1312.6
2014-Sep-06 03:33N 54°36' E 014°30'1212.0
2014-Sep-06 02:33N 54°38' E 014°10'1312.7
2014-Sep-06 01:33N 54°42' E 013°49'1312.6
2014-Sep-06 00:33N 54°45' E 013°28'1212.5
2014-Sep-05 23:33N 54°44' E 013°06'1212.3
2014-Sep-05 22:33N 54°44' E 012°45'1212.3
2014-Sep-05 21:33N 54°38' E 012°26'1211.7
2014-Sep-05 20:33N 54°28' E 012°15'1010.4
2014-Sep-05 19:33N 54°25' E 011°58'1211.5
2014-Sep-05 18:33N 54°27' E 011°39'72 7.9
2014-Sep-05 09:30N 54°15' E 009°37'5 5.0
2014-Sep-05 08:32N 54°11' E 009°31'7 7.4
2014-Sep-05 07:33N 54°08' E 009°20'8 8.4
2014-Sep-05 06:33N 53°60' E 009°17'8 8.0
2014-Sep-05 05:33N 53°54' E 009°09'3 3.1
2014-Sep-05 04:33N 53°52' E 009°04'1111.2
2014-Sep-05 03:33N 53°51' E 008°45'1211.9
2014-Sep-05 02:33N 53°58' E 008°29'1211.9
2014-Sep-05 01:33N 53°59' E 008°09'1211.6
2014-Sep-05 00:33N 54°04' E 007°50'1211.8
2014-Sep-04 23:33N 54°09' E 007°32'1211.6
2014-Sep-04 22:33N 54°09' E 007°13'1111.3
2014-Sep-04 21:33N 54°09' E 006°53'2311.6
2014-Sep-04 19:32N 54°08' E 006°13'5112.1
2014-Sep-04 15:20N 54°01' E 004°47'1112.4
2014-Sep-04 14:26N 53°60' E 004°28'  

Dump ship's entire track history